sensor_id;sensor_type;location;lat;lon;timestamp;P1;durP1;ratioP1;P2;durP2;ratioP2
66384;SDS011;53426;55.872;37.462;2022-12-16T00:01:50;18.42;;;10.10;;
66384;SDS011;53426;55.872;37.462;2022-12-16T00:04:16;18.23;;;9.77;;
66384;SDS011;53426;55.872;37.462;2022-12-16T00:06:42;18.35;;;11.63;;
66384;SDS011;53426;55.872;37.462;2022-12-16T00:09:09;25.60;;;12.95;;
66384;SDS011;53426;55.872;37.462;2022-12-16T00:11:35;19.17;;;13.05;;
66384;SDS011;53426;55.872;37.462;2022-12-16T00:14:01;31.20;;;10.15;;
66384;SDS011;53426;55.872;37.462;2022-12-16T00:16:27;12.30;;;9.00;;
66384;SDS011;53426;55.872;37.462;2022-12-16T00:18:53;17.25;;;10.43;;
66384;SDS011;53426;55.872;37.462;2022-12-16T00:21:20;18.15;;;12.00;;
66384;SDS011;53426;55.872;37.462;2022-12-16T00:23:54;21.20;;;12.82;;
66384;SDS011;53426;55.872;37.462;2022-12-16T00:26:35;19.33;;;10.57;;
66384;SDS011;53426;55.872;37.462;2022-12-16T00:29:08;23.45;;;11.25;;
66384;SDS011;53426;55.872;37.462;2022-12-16T00:39:14;16.13;;;9.18;;
66384;SDS011;53426;55.872;37.462;2022-12-16T00:41:43;18.10;;;10.48;;
66384;SDS011;53426;55.872;37.462;2022-12-16T00:44:11;18.45;;;10.73;;
66384;SDS011;53426;55.872;37.462;2022-12-16T00:46:39;16.15;;;10.73;;
66384;SDS011;53426;55.872;37.462;2022-12-16T00:49:04;17.13;;;11.13;;
66384;SDS011;53426;55.872;37.462;2022-12-16T00:51:30;16.15;;;10.30;;
66384;SDS011;53426;55.872;37.462;2022-12-16T00:53:57;15.38;;;9.57;;
66384;SDS011;53426;55.872;37.462;2022-12-16T00:56:26;17.20;;;11.25;;
66384;SDS011;53426;55.872;37.462;2022-12-16T00:58:52;15.73;;;9.68;;
66384;SDS011;53426;55.872;37.462;2022-12-16T01:01:18;19.50;;;10.70;;
66384;SDS011;53426;55.872;37.462;2022-12-16T01:05:01;16.48;;;10.93;;
66384;SDS011;53426;55.872;37.462;2022-12-16T01:07:28;16.55;;;11.02;;
66384;SDS011;53426;55.872;37.462;2022-12-16T01:09:58;15.05;;;10.25;;
66384;SDS011;53426;55.872;37.462;2022-12-16T01:15:15;17.05;;;11.00;;
66384;SDS011;53426;55.872;37.462;2022-12-16T01:17:41;15.68;;;9.48;;
66384;SDS011;53426;55.872;37.462;2022-12-16T01:22:58;13.70;;;9.05;;
66384;SDS011;53426;55.872;37.462;2022-12-16T01:25:25;19.75;;;10.98;;
66384;SDS011;53426;55.872;37.462;2022-12-16T01:27:54;13.95;;;8.45;;
66384;SDS011;53426;55.872;37.462;2022-12-16T01:30:20;13.77;;;9.63;;
66384;SDS011;53426;55.872;37.462;2022-12-16T01:32:46;11.25;;;8.40;;
66384;SDS011;53426;55.872;37.462;2022-12-16T01:35:12;13.25;;;8.85;;
66384;SDS011;53426;55.872;37.462;2022-12-16T01:37:38;16.73;;;11.15;;
66384;SDS011;53426;55.872;37.462;2022-12-16T01:40:04;12.82;;;9.48;;
66384;SDS011;53426;55.872;37.462;2022-12-16T01:45:31;12.32;;;8.57;;
66384;SDS011;53426;55.872;37.462;2022-12-16T01:48:00;12.52;;;8.55;;
66384;SDS011;53426;55.872;37.462;2022-12-16T01:50:39;13.77;;;10.05;;
66384;SDS011;53426;55.872;37.462;2022-12-16T01:53:06;11.75;;;7.45;;
66384;SDS011;53426;55.872;37.462;2022-12-16T01:55:42;16.00;;;10.02;;
66384;SDS011;53426;55.872;37.462;2022-12-16T01:58:16;13.40;;;9.55;;
66384;SDS011;53426;55.872;37.462;2022-12-16T02:00:47;14.35;;;10.40;;
66384;SDS011;53426;55.872;37.462;2022-12-16T02:06:11;11.45;;;7.80;;
66384;SDS011;53426;55.872;37.462;2022-12-16T02:08:40;13.85;;;9.60;;
66384;SDS011;53426;55.872;37.462;2022-12-16T02:25:37;12.75;;;8.50;;
66384;SDS011;53426;55.872;37.462;2022-12-16T02:39:54;13.57;;;9.93;;
66384;SDS011;53426;55.872;37.462;2022-12-16T02:42:26;14.98;;;10.52;;
66384;SDS011;53426;55.872;37.462;2022-12-16T02:44:59;14.90;;;9.80;;
66384;SDS011;53426;55.872;37.462;2022-12-16T02:47:31;12.77;;;9.38;;
66384;SDS011;53426;55.872;37.462;2022-12-16T02:49:57;14.15;;;10.05;;
66384;SDS011;53426;55.872;37.462;2022-12-16T02:52:24;14.25;;;9.98;;
66384;SDS011;53426;55.872;37.462;2022-12-16T02:54:58;19.63;;;10.30;;
66384;SDS011;53426;55.872;37.462;2022-12-16T03:00:16;16.85;;;10.25;;
66384;SDS011;53426;55.872;37.462;2022-12-16T03:06:03;14.88;;;8.93;;
66384;SDS011;53426;55.872;37.462;2022-12-16T03:08:31;17.58;;;10.95;;
66384;SDS011;53426;55.872;37.462;2022-12-16T03:11:03;16.13;;;10.02;;
66384;SDS011;53426;55.872;37.462;2022-12-16T03:13:36;15.73;;;9.73;;
66384;SDS011;53426;55.872;37.462;2022-12-16T03:16:06;16.40;;;9.68;;
66384;SDS011;53426;55.872;37.462;2022-12-16T03:18:46;16.13;;;10.52;;
66384;SDS011;53426;55.872;37.462;2022-12-16T03:24:11;13.95;;;9.13;;
66384;SDS011;53426;55.872;37.462;2022-12-16T03:33:40;15.57;;;10.40;;
66384;SDS011;53426;55.872;37.462;2022-12-16T03:36:17;17.27;;;11.02;;
66384;SDS011;53426;55.872;37.462;2022-12-16T03:38:48;15.23;;;9.93;;
66384;SDS011;53426;55.872;37.462;2022-12-16T03:44:42;12.35;;;10.07;;
66384;SDS011;53426;55.872;37.462;2022-12-16T03:47:48;15.95;;;10.35;;
66384;SDS011;53426;55.872;37.462;2022-12-16T03:58:54;14.38;;;9.10;;
66384;SDS011;53426;55.872;37.462;2022-12-16T04:01:20;14.65;;;9.70;;
66384;SDS011;53426;55.872;37.462;2022-12-16T04:03:48;27.75;;;9.30;;
66384;SDS011;53426;55.872;37.462;2022-12-16T04:09:06;18.35;;;10.40;;
66384;SDS011;53426;55.872;37.462;2022-12-16T04:11:32;12.73;;;9.80;;
66384;SDS011;53426;55.872;37.462;2022-12-16T04:14:16;14.30;;;9.73;;
66384;SDS011;53426;55.872;37.462;2022-12-16T04:17:01;12.00;;;8.73;;
66384;SDS011;53426;55.872;37.462;2022-12-16T04:19:46;13.52;;;9.45;;
66384;SDS011;53426;55.872;37.462;2022-12-16T04:22:32;14.10;;;9.50;;
66384;SDS011;53426;55.872;37.462;2022-12-16T04:25:30;15.05;;;10.20;;
66384;SDS011;53426;55.872;37.462;2022-12-16T04:28:42;14.55;;;9.98;;
66384;SDS011;53426;55.872;37.462;2022-12-16T04:31:08;13.52;;;9.10;;
66384;SDS011;53426;55.872;37.462;2022-12-16T04:33:34;17.65;;;9.77;;
66384;SDS011;53426;55.872;37.462;2022-12-16T04:36:18;10.50;;;8.73;;
66384;SDS011;53426;55.872;37.462;2022-12-16T04:39:03;15.32;;;9.38;;
66384;SDS011;53426;55.872;37.462;2022-12-16T04:41:54;16.73;;;9.75;;
66384;SDS011;53426;55.872;37.462;2022-12-16T04:44:38;11.52;;;8.80;;
66384;SDS011;53426;55.872;37.462;2022-12-16T04:47:22;12.40;;;8.02;;
66384;SDS011;53426;55.872;37.462;2022-12-16T04:50:07;10.73;;;9.03;;
66384;SDS011;53426;55.872;37.462;2022-12-16T04:52:52;11.57;;;8.15;;
66384;SDS011;53426;55.872;37.462;2022-12-16T04:55:36;11.82;;;8.95;;
66384;SDS011;53426;55.872;37.462;2022-12-16T04:58:23;14.65;;;8.82;;
66384;SDS011;53426;55.872;37.462;2022-12-16T05:01:07;10.75;;;8.93;;
66384;SDS011;53426;55.872;37.462;2022-12-16T05:03:52;13.17;;;8.23;;
66384;SDS011;53426;55.872;37.462;2022-12-16T05:06:36;14.67;;;8.97;;
66384;SDS011;53426;55.872;37.462;2022-12-16T05:09:20;16.70;;;8.48;;
66384;SDS011;53426;55.872;37.462;2022-12-16T05:12:08;10.40;;;8.13;;
66384;SDS011;53426;55.872;37.462;2022-12-16T05:14:52;12.43;;;9.15;;
66384;SDS011;53426;55.872;37.462;2022-12-16T05:17:37;10.18;;;8.45;;
66384;SDS011;53426;55.872;37.462;2022-12-16T05:20:21;12.38;;;8.60;;
66384;SDS011;53426;55.872;37.462;2022-12-16T05:23:06;9.77;;;8.00;;
66384;SDS011;53426;55.872;37.462;2022-12-16T05:25:50;17.00;;;8.77;;
66384;SDS011;53426;55.872;37.462;2022-12-16T05:28:35;8.60;;;6.75;;
66384;SDS011;53426;55.872;37.462;2022-12-16T05:31:19;12.95;;;9.23;;
66384;SDS011;53426;55.872;37.462;2022-12-16T05:34:03;10.68;;;8.13;;
66384;SDS011;53426;55.872;37.462;2022-12-16T05:36:48;11.67;;;8.73;;
66384;SDS011;53426;55.872;37.462;2022-12-16T05:39:40;11.40;;;9.02;;
66384;SDS011;53426;55.872;37.462;2022-12-16T05:45:24;11.63;;;7.88;;
66384;SDS011;53426;55.872;37.462;2022-12-16T05:48:08;13.32;;;8.18;;
66384;SDS011;53426;55.872;37.462;2022-12-16T05:51:02;11.77;;;8.98;;
66384;SDS011;53426;55.872;37.462;2022-12-16T05:53:46;9.50;;;7.18;;
66384;SDS011;53426;55.872;37.462;2022-12-16T05:56:31;16.20;;;9.13;;
66384;SDS011;53426;55.872;37.462;2022-12-16T05:59:16;12.38;;;8.63;;
66384;SDS011;53426;55.872;37.462;2022-12-16T06:02:01;11.45;;;8.68;;
66384;SDS011;53426;55.872;37.462;2022-12-16T06:04:47;14.80;;;8.02;;
66384;SDS011;53426;55.872;37.462;2022-12-16T06:07:32;11.17;;;8.77;;
66384;SDS011;53426;55.872;37.462;2022-12-16T06:10:20;13.05;;;9.02;;
66384;SDS011;53426;55.872;37.462;2022-12-16T06:13:04;18.20;;;10.25;;
66384;SDS011;53426;55.872;37.462;2022-12-16T06:15:49;9.13;;;7.63;;
66384;SDS011;53426;55.872;37.462;2022-12-16T06:18:33;9.67;;;7.87;;
66384;SDS011;53426;55.872;37.462;2022-12-16T06:21:18;11.40;;;8.97;;
66384;SDS011;53426;55.872;37.462;2022-12-16T06:24:02;9.27;;;8.13;;
66384;SDS011;53426;55.872;37.462;2022-12-16T06:26:46;15.73;;;7.70;;
66384;SDS011;53426;55.872;37.462;2022-12-16T06:29:31;10.50;;;8.15;;
66384;SDS011;53426;55.872;37.462;2022-12-16T06:33:00;10.80;;;9.00;;
66384;SDS011;53426;55.872;37.462;2022-12-16T06:35:49;12.05;;;7.97;;
66384;SDS011;53426;55.872;37.462;2022-12-16T06:38:49;12.88;;;8.38;;
66384;SDS011;53426;55.872;37.462;2022-12-16T06:45:49;9.20;;;7.53;;
66384;SDS011;53426;55.872;37.462;2022-12-16T06:48:33;14.33;;;6.93;;
66384;SDS011;53426;55.872;37.462;2022-12-16T06:51:20;8.57;;;6.37;;
66384;SDS011;53426;55.872;37.462;2022-12-16T06:54:04;12.98;;;8.52;;
66384;SDS011;53426;55.872;37.462;2022-12-16T06:56:51;9.35;;;7.43;;
66384;SDS011;53426;55.872;37.462;2022-12-16T06:59:39;8.20;;;7.10;;
66384;SDS011;53426;55.872;37.462;2022-12-16T07:06:03;9.98;;;7.60;;
66384;SDS011;53426;55.872;37.462;2022-12-16T07:08:48;12.23;;;8.50;;
66384;SDS011;53426;55.872;37.462;2022-12-16T07:11:33;11.23;;;8.30;;
66384;SDS011;53426;55.872;37.462;2022-12-16T07:14:17;12.00;;;7.72;;
66384;SDS011;53426;55.872;37.462;2022-12-16T07:17:02;11.52;;;8.57;;
66384;SDS011;53426;55.872;37.462;2022-12-16T07:19:49;8.88;;;7.18;;
66384;SDS011;53426;55.872;37.462;2022-12-16T07:25:36;10.73;;;8.18;;
66384;SDS011;53426;55.872;37.462;2022-12-16T07:31:06;14.02;;;8.57;;
66384;SDS011;53426;55.872;37.462;2022-12-16T07:34:04;18.48;;;9.07;;
66384;SDS011;53426;55.872;37.462;2022-12-16T07:36:48;10.15;;;7.75;;
66384;SDS011;53426;55.872;37.462;2022-12-16T07:39:34;9.35;;;7.07;;
66384;SDS011;53426;55.872;37.462;2022-12-16T07:42:19;11.70;;;8.30;;
66384;SDS011;53426;55.872;37.462;2022-12-16T07:45:03;10.35;;;8.02;;
66384;SDS011;53426;55.872;37.462;2022-12-16T07:47:49;9.68;;;6.47;;
66384;SDS011;53426;55.872;37.462;2022-12-16T07:50:34;10.80;;;8.65;;
66384;SDS011;53426;55.872;37.462;2022-12-16T07:56:35;13.93;;;8.63;;
66384;SDS011;53426;55.872;37.462;2022-12-16T07:59:46;13.10;;;8.57;;
66384;SDS011;53426;55.872;37.462;2022-12-16T08:12:38;14.63;;;8.75;;
66384;SDS011;53426;55.872;37.462;2022-12-16T08:15:28;15.57;;;9.30;;
66384;SDS011;53426;55.872;37.462;2022-12-16T08:18:51;11.30;;;8.63;;
66384;SDS011;53426;55.872;37.462;2022-12-16T08:21:29;13.20;;;9.13;;
66384;SDS011;53426;55.872;37.462;2022-12-16T08:24:23;11.60;;;8.68;;
66384;SDS011;53426;55.872;37.462;2022-12-16T08:30:58;12.85;;;8.75;;
66384;SDS011;53426;55.872;37.462;2022-12-16T08:33:52;14.82;;;9.65;;
66384;SDS011;53426;55.872;37.462;2022-12-16T08:36:39;20.05;;;8.77;;
66384;SDS011;53426;55.872;37.462;2022-12-16T08:42:54;12.65;;;8.48;;
66384;SDS011;53426;55.872;37.462;2022-12-16T08:45:41;11.10;;;8.73;;
66384;SDS011;53426;55.872;37.462;2022-12-16T08:48:26;11.77;;;8.85;;
66384;SDS011;53426;55.872;37.462;2022-12-16T08:51:21;20.35;;;9.48;;
66384;SDS011;53426;55.872;37.462;2022-12-16T08:54:12;12.32;;;9.23;;
66384;SDS011;53426;55.872;37.462;2022-12-16T08:56:56;16.63;;;9.75;;
66384;SDS011;53426;55.872;37.462;2022-12-16T08:59:41;11.57;;;8.20;;
66384;SDS011;53426;55.872;37.462;2022-12-16T09:02:46;11.75;;;8.43;;
66384;SDS011;53426;55.872;37.462;2022-12-16T09:17:58;10.45;;;8.57;;
66384;SDS011;53426;55.872;37.462;2022-12-16T09:28:49;11.40;;;7.78;;
66384;SDS011;53426;55.872;37.462;2022-12-16T09:31:34;11.13;;;8.05;;
66384;SDS011;53426;55.872;37.462;2022-12-16T09:49:42;17.30;;;7.68;;
66384;SDS011;53426;55.872;37.462;2022-12-16T09:53:00;11.27;;;7.50;;
66384;SDS011;53426;55.872;37.462;2022-12-16T09:55:49;13.77;;;8.70;;
66384;SDS011;53426;55.872;37.462;2022-12-16T09:58:55;10.55;;;7.90;;
66384;SDS011;53426;55.872;37.462;2022-12-16T10:15:53;11.13;;;7.38;;
66384;SDS011;53426;55.872;37.462;2022-12-16T10:21:29;10.82;;;7.38;;
66384;SDS011;53426;55.872;37.462;2022-12-16T10:27:25;8.15;;;5.95;;
66384;SDS011;53426;55.872;37.462;2022-12-16T10:30:25;18.20;;;8.95;;
66384;SDS011;53426;55.872;37.462;2022-12-16T10:33:10;8.73;;;7.50;;
66384;SDS011;53426;55.872;37.462;2022-12-16T10:36:21;8.38;;;6.78;;
66384;SDS011;53426;55.872;37.462;2022-12-16T10:40:04;9.23;;;7.18;;
66384;SDS011;53426;55.872;37.462;2022-12-16T10:46:25;11.73;;;8.43;;
66384;SDS011;53426;55.872;37.462;2022-12-16T11:01:27;8.60;;;5.97;;
66384;SDS011;53426;55.872;37.462;2022-12-16T11:04:34;10.68;;;8.18;;
66384;SDS011;53426;55.872;37.462;2022-12-16T11:07:22;12.27;;;7.60;;
66384;SDS011;53426;55.872;37.462;2022-12-16T11:13:50;12.93;;;9.13;;
66384;SDS011;53426;55.872;37.462;2022-12-16T11:20:21;11.15;;;8.63;;
66384;SDS011;53426;55.872;37.462;2022-12-16T11:26:15;12.45;;;8.82;;
66384;SDS011;53426;55.872;37.462;2022-12-16T11:29:31;12.68;;;8.85;;
66384;SDS011;53426;55.872;37.462;2022-12-16T11:32:45;12.93;;;8.90;;
66384;SDS011;53426;55.872;37.462;2022-12-16T11:36:02;13.23;;;8.48;;
66384;SDS011;53426;55.872;37.462;2022-12-16T11:39:20;12.45;;;8.48;;
66384;SDS011;53426;55.872;37.462;2022-12-16T11:42:09;11.18;;;8.43;;
66384;SDS011;53426;55.872;37.462;2022-12-16T11:45:03;14.38;;;9.90;;
66384;SDS011;53426;55.872;37.462;2022-12-16T11:51:05;12.80;;;9.52;;
66384;SDS011;53426;55.872;37.462;2022-12-16T11:53:58;14.88;;;9.93;;
66384;SDS011;53426;55.872;37.462;2022-12-16T11:56:53;15.15;;;10.18;;
66384;SDS011;53426;55.872;37.462;2022-12-16T12:03:11;14.77;;;9.60;;
66384;SDS011;53426;55.872;37.462;2022-12-16T12:06:24;13.73;;;8.82;;
66384;SDS011;53426;55.872;37.462;2022-12-16T12:13:01;13.25;;;9.30;;
66384;SDS011;53426;55.872;37.462;2022-12-16T12:22:31;12.23;;;9.23;;
66384;SDS011;53426;55.872;37.462;2022-12-16T12:31:43;16.40;;;9.98;;
66384;SDS011;53426;55.872;37.462;2022-12-16T12:37:29;12.93;;;8.38;;
66384;SDS011;53426;55.872;37.462;2022-12-16T12:46:48;11.98;;;8.73;;
66384;SDS011;53426;55.872;37.462;2022-12-16T12:59:09;10.88;;;8.30;;
66384;SDS011;53426;55.872;37.462;2022-12-16T13:05:23;11.40;;;8.45;;
66384;SDS011;53426;55.872;37.462;2022-12-16T13:11:25;10.65;;;8.30;;
66384;SDS011;53426;55.872;37.462;2022-12-16T13:23:38;12.23;;;8.50;;
66384;SDS011;53426;55.872;37.462;2022-12-16T13:30:37;9.15;;;7.07;;
66384;SDS011;53426;55.872;37.462;2022-12-16T13:36:56;8.88;;;7.38;;
66384;SDS011;53426;55.872;37.462;2022-12-16T13:40:17;12.70;;;8.48;;
66384;SDS011;53426;55.872;37.462;2022-12-16T13:43:04;14.57;;;8.20;;
66384;SDS011;53426;55.872;37.462;2022-12-16T13:48:48;11.60;;;8.57;;
66384;SDS011;53426;55.872;37.462;2022-12-16T13:54:27;11.38;;;8.60;;
66384;SDS011;53426;55.872;37.462;2022-12-16T13:57:20;13.43;;;9.13;;
66384;SDS011;53426;55.872;37.462;2022-12-16T14:00:16;17.75;;;9.73;;
66384;SDS011;53426;55.872;37.462;2022-12-16T14:03:08;15.05;;;9.43;;
66384;SDS011;53426;55.872;37.462;2022-12-16T14:06:18;12.00;;;9.32;;
66384;SDS011;53426;55.872;37.462;2022-12-16T14:09:16;12.52;;;8.45;;
66384;SDS011;53426;55.872;37.462;2022-12-16T14:12:28;11.63;;;8.57;;
66384;SDS011;53426;55.872;37.462;2022-12-16T14:22:51;10.15;;;7.38;;
66384;SDS011;53426;55.872;37.462;2022-12-16T14:26:01;12.88;;;8.23;;
66384;SDS011;53426;55.872;37.462;2022-12-16T14:28:49;10.15;;;7.65;;
66384;SDS011;53426;55.872;37.462;2022-12-16T14:35:21;9.48;;;7.68;;
66384;SDS011;53426;55.872;37.462;2022-12-16T14:44:45;12.35;;;8.43;;
66384;SDS011;53426;55.872;37.462;2022-12-16T14:47:32;12.45;;;8.88;;
66384;SDS011;53426;55.872;37.462;2022-12-16T14:50:20;12.70;;;9.20;;
66384;SDS011;53426;55.872;37.462;2022-12-16T14:53:22;12.07;;;9.20;;
66384;SDS011;53426;55.872;37.462;2022-12-16T14:56:20;12.73;;;7.95;;
66384;SDS011;53426;55.872;37.462;2022-12-16T14:59:07;13.35;;;8.63;;
66384;SDS011;53426;55.872;37.462;2022-12-16T15:05:19;12.68;;;8.30;;
66384;SDS011;53426;55.872;37.462;2022-12-16T15:08:11;15.43;;;9.35;;
66384;SDS011;53426;55.872;37.462;2022-12-16T15:14:41;11.93;;;7.30;;
66384;SDS011;53426;55.872;37.462;2022-12-16T15:20:50;11.00;;;7.85;;
66384;SDS011;53426;55.872;37.462;2022-12-16T15:32:40;12.70;;;8.85;;
66384;SDS011;53426;55.872;37.462;2022-12-16T15:41:29;11.38;;;8.18;;
66384;SDS011;53426;55.872;37.462;2022-12-16T15:47:30;12.52;;;9.45;;
66384;SDS011;53426;55.872;37.462;2022-12-16T15:50:36;16.08;;;9.27;;
66384;SDS011;53426;55.872;37.462;2022-12-16T15:54:02;10.75;;;8.10;;
66384;SDS011;53426;55.872;37.462;2022-12-16T16:00:26;11.85;;;8.57;;
66384;SDS011;53426;55.872;37.462;2022-12-16T16:03:16;11.18;;;8.65;;
66384;SDS011;53426;55.872;37.462;2022-12-16T16:09:39;12.43;;;9.45;;
66384;SDS011;53426;55.872;37.462;2022-12-16T16:12:24;13.97;;;9.97;;
66384;SDS011;53426;55.872;37.462;2022-12-16T16:18:21;14.05;;;8.75;;
66384;SDS011;53426;55.872;37.462;2022-12-16T16:21:08;12.95;;;10.32;;
66384;SDS011;53426;55.872;37.462;2022-12-16T16:24:04;13.48;;;9.80;;
66384;SDS011;53426;55.872;37.462;2022-12-16T16:32:40;12.82;;;10.02;;
66384;SDS011;53426;55.872;37.462;2022-12-16T16:35:24;15.52;;;10.43;;
66384;SDS011;53426;55.872;37.462;2022-12-16T16:38:09;14.98;;;10.98;;
66384;SDS011;53426;55.872;37.462;2022-12-16T16:40:54;14.00;;;10.38;;
66384;SDS011;53426;55.872;37.462;2022-12-16T16:43:38;13.97;;;10.30;;
66384;SDS011;53426;55.872;37.462;2022-12-16T16:46:30;15.90;;;11.50;;
66384;SDS011;53426;55.872;37.462;2022-12-16T16:49:28;16.42;;;11.60;;
66384;SDS011;53426;55.872;37.462;2022-12-16T16:52:21;16.38;;;12.02;;
66384;SDS011;53426;55.872;37.462;2022-12-16T16:55:07;21.80;;;13.00;;
66384;SDS011;53426;55.872;37.462;2022-12-16T16:58:02;18.20;;;12.23;;
66384;SDS011;53426;55.872;37.462;2022-12-16T17:00:50;18.80;;;12.45;;
66384;SDS011;53426;55.872;37.462;2022-12-16T17:03:34;17.52;;;12.60;;
66384;SDS011;53426;55.872;37.462;2022-12-16T17:06:19;18.63;;;11.88;;
66384;SDS011;53426;55.872;37.462;2022-12-16T17:09:03;13.90;;;10.70;;
66384;SDS011;53426;55.872;37.462;2022-12-16T17:11:48;16.25;;;11.55;;
66384;SDS011;53426;55.872;37.462;2022-12-16T17:20:51;18.33;;;12.48;;
66384;SDS011;53426;55.872;37.462;2022-12-16T17:23:39;22.33;;;12.63;;
66384;SDS011;53426;55.872;37.462;2022-12-16T17:26:24;18.43;;;12.33;;
66384;SDS011;53426;55.872;37.462;2022-12-16T17:29:14;20.85;;;13.07;;
66384;SDS011;53426;55.872;37.462;2022-12-16T17:32:02;18.83;;;12.75;;
66384;SDS011;53426;55.872;37.462;2022-12-16T17:34:50;20.17;;;13.85;;
66384;SDS011;53426;55.872;37.462;2022-12-16T17:37:34;19.20;;;13.57;;
66384;SDS011;53426;55.872;37.462;2022-12-16T17:43:34;17.23;;;12.35;;
66384;SDS011;53426;55.872;37.462;2022-12-16T17:46:23;18.60;;;12.95;;
66384;SDS011;53426;55.872;37.462;2022-12-16T17:49:08;23.67;;;13.60;;
66384;SDS011;53426;55.872;37.462;2022-12-16T17:51:52;19.10;;;12.60;;
66384;SDS011;53426;55.872;37.462;2022-12-16T17:54:37;20.65;;;12.75;;
66384;SDS011;53426;55.872;37.462;2022-12-16T17:57:21;18.42;;;12.77;;
66384;SDS011;53426;55.872;37.462;2022-12-16T18:00:44;19.88;;;12.90;;
66384;SDS011;53426;55.872;37.462;2022-12-16T18:03:32;18.52;;;12.85;;
66384;SDS011;53426;55.872;37.462;2022-12-16T18:06:16;20.43;;;14.23;;
66384;SDS011;53426;55.872;37.462;2022-12-16T18:09:01;19.90;;;13.18;;
66384;SDS011;53426;55.872;37.462;2022-12-16T18:11:55;21.42;;;13.70;;
66384;SDS011;53426;55.872;37.462;2022-12-16T18:14:40;21.73;;;14.05;;
66384;SDS011;53426;55.872;37.462;2022-12-16T18:17:31;24.63;;;14.07;;
66384;SDS011;53426;55.872;37.462;2022-12-16T18:20:16;22.02;;;15.25;;
66384;SDS011;53426;55.872;37.462;2022-12-16T18:23:01;21.08;;;14.45;;
66384;SDS011;53426;55.872;37.462;2022-12-16T18:25:55;22.25;;;14.68;;
66384;SDS011;53426;55.872;37.462;2022-12-16T18:28:41;23.08;;;13.70;;
66384;SDS011;53426;55.872;37.462;2022-12-16T18:31:26;24.15;;;14.68;;
66384;SDS011;53426;55.872;37.462;2022-12-16T18:34:13;20.38;;;14.27;;
66384;SDS011;53426;55.872;37.462;2022-12-16T18:36:58;22.60;;;14.73;;
66384;SDS011;53426;55.872;37.462;2022-12-16T18:39:42;28.25;;;14.43;;
66384;SDS011;53426;55.872;37.462;2022-12-16T18:42:34;21.05;;;13.95;;
66384;SDS011;53426;55.872;37.462;2022-12-16T18:45:19;20.20;;;14.93;;
66384;SDS011;53426;55.872;37.462;2022-12-16T18:48:04;19.98;;;14.70;;
66384;SDS011;53426;55.872;37.462;2022-12-16T18:50:56;21.00;;;14.02;;
66384;SDS011;53426;55.872;37.462;2022-12-16T18:53:42;21.70;;;14.32;;
66384;SDS011;53426;55.872;37.462;2022-12-16T18:56:26;21.45;;;14.05;;
66384;SDS011;53426;55.872;37.462;2022-12-16T19:01:56;23.52;;;14.23;;
66384;SDS011;53426;55.872;37.462;2022-12-16T19:04:41;22.13;;;14.18;;
66384;SDS011;53426;55.872;37.462;2022-12-16T19:11:12;22.27;;;14.13;;
66384;SDS011;53426;55.872;37.462;2022-12-16T19:13:56;21.50;;;15.23;;
66384;SDS011;53426;55.872;37.462;2022-12-16T19:16:41;20.20;;;15.23;;
66384;SDS011;53426;55.872;37.462;2022-12-16T19:19:28;22.30;;;14.27;;
66384;SDS011;53426;55.872;37.462;2022-12-16T19:22:12;24.07;;;15.73;;
66384;SDS011;53426;55.872;37.462;2022-12-16T19:24:57;25.95;;;17.00;;
66384;SDS011;53426;55.872;37.462;2022-12-16T19:27:42;29.27;;;16.05;;
66384;SDS011;53426;55.872;37.462;2022-12-16T19:30:30;26.67;;;15.20;;
66384;SDS011;53426;55.872;37.462;2022-12-16T19:33:14;27.67;;;15.52;;
66384;SDS011;53426;55.872;37.462;2022-12-16T19:35:59;26.88;;;15.80;;
66384;SDS011;53426;55.872;37.462;2022-12-16T19:38:46;35.50;;;17.02;;
66384;SDS011;53426;55.872;37.462;2022-12-16T19:41:30;24.70;;;16.35;;
66384;SDS011;53426;55.872;37.462;2022-12-16T19:46:59;24.17;;;15.63;;
66384;SDS011;53426;55.872;37.462;2022-12-16T19:49:44;27.88;;;16.40;;
66384;SDS011;53426;55.872;37.462;2022-12-16T19:52:29;27.10;;;15.45;;
66384;SDS011;53426;55.872;37.462;2022-12-16T19:55:13;25.95;;;15.45;;
66384;SDS011;53426;55.872;37.462;2022-12-16T19:57:58;29.35;;;15.70;;
66384;SDS011;53426;55.872;37.462;2022-12-16T20:00:43;27.00;;;15.43;;
66384;SDS011;53426;55.872;37.462;2022-12-16T20:03:27;27.70;;;17.55;;
66384;SDS011;53426;55.872;37.462;2022-12-16T20:06:12;23.58;;;15.63;;
66384;SDS011;53426;55.872;37.462;2022-12-16T20:08:56;27.42;;;15.75;;
66384;SDS011;53426;55.872;37.462;2022-12-16T20:11:41;21.58;;;14.40;;
66384;SDS011;53426;55.872;37.462;2022-12-16T20:14:26;24.27;;;14.75;;
66384;SDS011;53426;55.872;37.462;2022-12-16T20:17:11;21.42;;;14.13;;
66384;SDS011;53426;55.872;37.462;2022-12-16T20:19:55;21.40;;;14.23;;
66384;SDS011;53426;55.872;37.462;2022-12-16T20:22:39;23.90;;;14.90;;
66384;SDS011;53426;55.872;37.462;2022-12-16T20:25:26;22.55;;;13.85;;
66384;SDS011;53426;55.872;37.462;2022-12-16T20:28:11;26.65;;;14.48;;
66384;SDS011;53426;55.872;37.462;2022-12-16T20:30:59;26.58;;;15.13;;
66384;SDS011;53426;55.872;37.462;2022-12-16T20:33:45;22.48;;;14.82;;
66384;SDS011;53426;55.872;37.462;2022-12-16T20:36:29;23.35;;;15.02;;
66384;SDS011;53426;55.872;37.462;2022-12-16T20:39:15;22.10;;;13.40;;
66384;SDS011;53426;55.872;37.462;2022-12-16T20:41:59;21.95;;;13.85;;
66384;SDS011;53426;55.872;37.462;2022-12-16T20:44:43;23.88;;;15.32;;
66384;SDS011;53426;55.872;37.462;2022-12-16T20:47:29;28.77;;;14.07;;
66384;SDS011;53426;55.872;37.462;2022-12-16T20:50:13;26.08;;;15.82;;
66384;SDS011;53426;55.872;37.462;2022-12-16T20:52:57;20.17;;;14.75;;
66384;SDS011;53426;55.872;37.462;2022-12-16T20:55:42;30.17;;;16.65;;
66384;SDS011;53426;55.872;37.462;2022-12-16T21:01:11;23.42;;;13.13;;
66384;SDS011;53426;55.872;37.462;2022-12-16T21:03:55;30.92;;;18.40;;
66384;SDS011;53426;55.872;37.462;2022-12-16T21:06:40;28.08;;;17.55;;
66384;SDS011;53426;55.872;37.462;2022-12-16T21:09:25;26.15;;;17.10;;
66384;SDS011;53426;55.872;37.462;2022-12-16T21:12:09;30.58;;;18.40;;
66384;SDS011;53426;55.872;37.462;2022-12-16T21:14:54;29.63;;;18.67;;
66384;SDS011;53426;55.872;37.462;2022-12-16T21:17:38;33.25;;;17.30;;
66384;SDS011;53426;55.872;37.462;2022-12-16T21:20:22;26.93;;;16.40;;
66384;SDS011;53426;55.872;37.462;2022-12-16T21:23:07;26.00;;;17.23;;
66384;SDS011;53426;55.872;37.462;2022-12-16T21:25:52;26.73;;;17.73;;
66384;SDS011;53426;55.872;37.462;2022-12-16T21:28:36;20.63;;;15.57;;
66384;SDS011;53426;55.872;37.462;2022-12-16T21:31:22;25.35;;;16.90;;
66384;SDS011;53426;55.872;37.462;2022-12-16T21:34:06;24.83;;;14.82;;
66384;SDS011;53426;55.872;37.462;2022-12-16T21:36:52;25.48;;;16.90;;
66384;SDS011;53426;55.872;37.462;2022-12-16T21:39:36;23.92;;;15.50;;
66384;SDS011;53426;55.872;37.462;2022-12-16T21:42:21;26.40;;;16.38;;
66384;SDS011;53426;55.872;37.462;2022-12-16T21:45:05;25.67;;;16.33;;
66384;SDS011;53426;55.872;37.462;2022-12-16T21:47:53;31.58;;;17.23;;
66384;SDS011;53426;55.872;37.462;2022-12-16T21:50:37;29.17;;;16.42;;
66384;SDS011;53426;55.872;37.462;2022-12-16T21:53:21;26.92;;;16.42;;